Time;durP1;ratioP1;P1;durP2;ratioP2;P2;SDS_P1;SDS_P2;PMS_P1;PMS_P2;Temp;Humidity;BMP_temperature;BMP_pressure;BME280_temperature;BME280_humidity;BME280_pressure;Samples;Min_cycle;Max_cycle;Signal;HPM_P1;HPM_P2
2022/07/12 00:01:45;;;;;;;1.50;1.00;;;16.90;98.20;;;;;;6081778;23;20976;-80
2022/07/12 00:04:12;;;;;;;1.50;1.00;;;16.80;98.20;;;;;;6097400;23;20423;-80
2022/07/12 00:06:39;;;;;;;1.50;0.90;;;16.80;98.20;;;;;;6082704;23;20458;-79
2022/07/12 00:09:06;;;;;;;1.50;1.00;;;16.80;98.20;;;;;;6099807;23;20458;-80
2022/07/12 00:11:34;;;;;;;1.50;0.90;;;16.70;98.20;;;;;;6083875;23;20510;-80
2022/07/12 00:14:03;;;;;;;1.50;0.90;;;16.70;98.20;;;;;;6100666;23;20458;-79
2022/07/12 00:16:30;;;;;;;1.50;0.90;;;16.70;98.20;;;;;;6097654;23;20430;-79
2022/07/12 00:18:57;;;;;;;1.50;0.90;;;16.60;98.20;;;;;;6099218;23;20430;-79
2022/07/12 00:21:24;;;;;;;1.50;1.00;;;16.60;98.20;;;;;;6084211;23;20482;-77
2022/07/12 00:23:51;;;;;;;1.50;0.90;;;16.60;98.20;;;;;;6098162;23;20754;-79
2022/07/12 00:26:18;;;;;;;1.50;1.00;;;16.60;98.20;;;;;;6099477;23;20427;-80
2022/07/12 00:28:46;;;;;;;1.50;1.00;;;16.50;98.20;;;;;;6099468;23;20430;-80
2022/07/12 00:31:18;;;;;;;1.50;1.00;;;16.50;98.20;;;;;;6108271;23;20473;-78
2022/07/12 00:33:45;;;;;;;1.50;1.00;;;16.50;98.20;;;;;;6098710;23;20438;-79
2022/07/12 00:36:12;;;;;;;1.50;1.00;;;16.50;98.20;;;;;;6084679;23;20461;-77
2022/07/12 00:38:39;;;;;;;1.50;1.00;;;16.40;98.20;;;;;;6097599;23;20436;-80
2022/07/12 00:41:06;;;;;;;1.50;1.00;;;16.40;98.20;;;;;;6099003;23;20453;-78
2022/07/12 00:43:35;;;;;;;1.50;1.00;;;16.40;98.20;;;;;;6109168;23;20985;-81
2022/07/12 00:46:02;;;;;;;1.50;1.00;;;16.30;98.20;;;;;;6099517;23;20430;-79
2022/07/12 00:48:32;;;;;;;1.50;1.00;;;16.30;98.20;;;;;;6110386;23;20427;-79
2022/07/12 00:50:59;;;;;;;1.50;0.97;;;16.30;98.20;;;;;;6085233;23;20546;-81
2022/07/12 00:53:27;;;;;;;1.50;0.97;;;16.20;98.20;;;;;;6106763;23;20558;-78
2022/07/12 00:55:56;;;;;;;1.50;0.90;;;16.20;98.20;;;;;;6098906;23;20486;-80
2022/07/12 00:58:24;;;;;;;1.50;0.90;;;16.20;98.20;;;;;;6108721;23;20454;-80
2022/07/12 01:00:52;;;;;;;1.50;1.00;;;16.20;98.20;;;;;;6083715;23;20438;-79
2022/07/12 01:03:20;;;;;;;1.50;1.00;;;16.20;98.20;;;;;;6098078;23;20450;-79
2022/07/12 01:05:49;;;;;;;1.50;1.00;;;16.20;98.20;;;;;;6087943;23;20458;-79
2022/07/12 01:08:26;;;;;;;1.50;0.90;;;16.10;98.20;;;;;;6098080;23;20510;-80
2022/07/12 01:10:56;;;;;;;1.50;1.00;;;16.10;98.20;;;;;;6084228;23;20443;-79
2022/07/12 01:13:23;;;;;;;1.50;0.90;;;16.10;98.20;;;;;;6099679;23;20773;-79
2022/07/12 01:15:51;;;;;;;1.50;0.90;;;16.10;98.20;;;;;;6097391;23;20422;-79
2022/07/12 01:18:19;;;;;;;1.50;1.00;;;16.10;98.20;;;;;;6097278;23;20430;-80
2022/07/12 01:20:47;;;;;;;1.50;1.00;;;16.00;98.20;;;;;;6107083;23;20454;-79
2022/07/12 01:23:16;;;;;;;1.50;1.00;;;16.00;98.20;;;;;;6097766;23;20877;-80
2022/07/12 01:25:43;;;;;;;1.50;1.00;;;15.90;98.20;;;;;;6110247;23;20502;-79
2022/07/12 01:28:11;;;;;;;1.50;1.00;;;15.90;98.20;;;;;;6082258;23;20531;-78
2022/07/12 01:30:38;;;;;;;1.50;1.00;;;15.90;98.20;;;;;;6098386;23;20509;-79
2022/07/12 01:33:05;;;;;;;1.50;1.00;;;15.90;98.20;;;;;;6075419;23;20453;-79
2022/07/12 01:35:33;;;;;;;1.60;1.00;;;15.90;98.20;;;;;;6096520;23;20422;-80
2022/07/12 01:38:00;;;;;;;1.50;0.90;;;15.90;98.20;;;;;;6082559;23;20450;-78
2022/07/12 01:40:29;;;;;;;1.50;1.00;;;15.90;98.20;;;;;;6097213;23;20474;-79
2022/07/12 01:42:57;;;;;;;1.50;1.00;;;15.90;98.20;;;;;;6080212;23;20450;-80
2022/07/12 01:45:23;;;;;;;1.50;0.90;;;15.80;98.20;;;;;;6097405;23;20426;-78
2022/07/12 01:47:50;;;;;;;1.50;1.00;;;15.80;98.20;;;;;;6081733;23;20606;-79
2022/07/12 01:50:18;;;;;;;1.50;1.10;;;15.80;98.20;;;;;;6105624;23;20493;-80
2022/07/12 01:52:45;;;;;;;1.50;1.00;;;15.80;98.20;;;;;;6080633;23;20907;-80
2022/07/12 01:55:13;;;;;;;1.50;1.00;;;15.70;98.20;;;;;;6097598;23;20587;-80
2022/07/12 01:57:43;;;;;;;1.50;1.00;;;15.70;98.20;;;;;;6081445;23;20457;-79
2022/07/12 02:00:11;;;;;;;1.50;1.00;;;15.70;98.20;;;;;;6107307;23;20431;-78
2022/07/12 02:02:39;;;;;;;1.50;1.00;;;15.60;98.20;;;;;;6079960;23;20494;-77
2022/07/12 02:05:07;;;;;;;1.50;0.90;;;15.60;98.20;;;;;;6097828;23;20780;-79
2022/07/12 02:07:34;;;;;;;1.50;1.10;;;15.60;98.20;;;;;;6089769;23;20454;-81
2022/07/12 02:10:01;;;;;;;1.50;0.90;;;15.60;98.20;;;;;;6096545;23;20426;-78
2022/07/12 02:12:29;;;;;;;1.50;1.00;;;15.60;98.20;;;;;;6097309;23;20446;-78
2022/07/12 02:14:57;;;;;;;1.50;1.00;;;15.50;98.20;;;;;;6097138;23;20427;-79
2022/07/12 02:17:24;;;;;;;1.50;1.00;;;15.50;98.20;;;;;;6096307;23;20453;-79
2022/07/12 02:19:52;;;;;;;1.50;1.10;;;15.50;98.20;;;;;;6105931;23;20418;-78
2022/07/12 02:22:20;;;;;;;1.50;0.90;;;15.50;98.20;;;;;;6080252;23;20591;-78
2022/07/12 02:24:49;;;;;;;1.50;1.00;;;15.40;98.20;;;;;;6106891;23;20458;-78
2022/07/12 02:27:17;;;;;;;1.50;1.00;;;15.40;98.20;;;;;;6097389;23;20941;-79
2022/07/12 02:29:44;;;;;;;1.50;0.90;;;15.40;98.20;;;;;;6095740;23;20941;-78
2022/07/12 02:32:13;;;;;;;1.50;1.00;;;15.40;98.20;;;;;;6083223;23;20583;-79
2022/07/12 02:34:40;;;;;;;1.50;1.10;;;15.30;98.20;;;;;;6096050;23;20446;-79
2022/07/12 02:37:07;;;;;;;1.50;1.00;;;15.30;98.20;;;;;;6095588;23;20430;-78
2022/07/12 02:39:34;;;;;;;1.50;1.00;;;15.30;98.20;;;;;;6097557;23;20422;-79
2022/07/12 02:42:01;;;;;;;1.50;0.90;;;15.30;98.20;;;;;;6080599;23;20554;-78
2022/07/12 02:44:28;;;;;;;1.50;0.90;;;15.30;98.20;;;;;;6096902;23;20415;-79
2022/07/12 02:46:55;;;;;;;1.50;1.00;;;15.20;98.20;;;;;;6081873;23;20972;-80
2022/07/12 02:49:24;;;;;;;1.50;1.00;;;15.20;98.20;;;;;;6106897;23;20427;-79
2022/07/12 02:51:51;;;;;;;1.50;1.00;;;15.20;98.20;;;;;;6080703;23;20459;-79
2022/07/12 02:54:18;;;;;;;1.50;1.00;;;15.20;98.20;;;;;;6095796;23;20446;-78
2022/07/12 02:56:45;;;;;;;1.50;1.00;;;15.20;98.20;;;;;;6080732;23;20457;-79
2022/07/12 02:59:12;;;;;;;1.50;1.00;;;15.10;98.20;;;;;;6096487;23;20423;-78
2022/07/12 03:01:40;;;;;;;1.50;1.00;;;15.10;98.20;;;;;;6080081;23;20454;-79
2022/07/12 03:04:07;;;;;;;1.50;1.10;;;15.10;98.20;;;;;;6096374;23;20423;-78
2022/07/12 03:06:36;;;;;;;1.50;1.00;;;15.10;98.20;;;;;;6080927;23;20451;-83
2022/07/12 03:09:03;;;;;;;1.50;1.00;;;15.10;98.20;;;;;;6095978;23;20478;-78
2022/07/12 03:11:30;;;;;;;1.50;1.00;;;15.00;98.20;;;;;;6087733;23;20514;-79
2022/07/12 03:13:59;;;;;;;1.50;1.00;;;15.00;98.20;;;;;;6093820;23;20459;-79
2022/07/12 03:16:26;;;;;;;1.50;1.00;;;15.00;98.20;;;;;;6096134;23;20494;-79
2022/07/12 03:18:53;;;;;;;1.50;1.00;;;15.00;98.20;;;;;;6096330;23;20819;-77
2022/07/12 03:21:20;;;;;;;1.50;1.00;;;15.10;98.20;;;;;;6081316;23;20525;-79
2022/07/12 03:23:49;;;;;;;1.50;1.00;;;15.10;98.20;;;;;;6106183;23;20427;-80
2022/07/12 03:26:16;;;;;;;1.50;0.90;;;15.10;98.20;;;;;;6081199;23;20814;-78
2022/07/12 03:28:44;;;;;;;1.50;0.93;;;15.00;98.20;;;;;;6093540;23;20423;-80
2022/07/12 03:31:11;;;;;;;1.50;1.10;;;15.10;98.20;;;;;;6095107;23;20478;-78
2022/07/12 03:33:38;;;;;;;1.50;1.00;;;15.10;98.20;;;;;;6095532;23;20451;-76
2022/07/12 03:36:08;;;;;;;1.50;1.00;;;15.10;98.20;;;;;;6082900;23;20419;-80
2022/07/12 03:38:36;;;;;;;1.50;1.00;;;15.10;98.20;;;;;;6106835;23;20801;-79
2022/07/12 03:41:05;;;;;;;1.50;1.00;;;15.10;98.20;;;;;;6095425;23;20498;-79
2022/07/12 03:43:33;;;;;;;1.50;1.00;;;15.10;98.20;;;;;;6095993;23;20518;-79
2022/07/12 03:46:00;;;;;;;1.50;0.90;;;15.10;98.20;;;;;;6081931;23;20481;-79
2022/07/12 03:48:27;;;;;;;1.50;1.00;;;15.10;98.20;;;;;;6092614;23;20703;-79
2022/07/12 03:50:55;;;;;;;1.50;0.90;;;15.10;98.20;;;;;;6082254;23;20615;-78
2022/07/12 03:53:23;;;;;;;1.50;1.00;;;15.10;98.20;;;;;;6105269;23;20450;-77
2022/07/12 03:55:50;;;;;;;1.50;1.00;;;15.10;98.20;;;;;;6081191;23;20443;-78
2022/07/12 03:58:19;;;;;;;1.50;1.00;;;15.10;98.20;;;;;;6094544;23;21025;-78
2022/07/12 04:00:46;;;;;;;1.50;1.00;;;15.10;98.20;;;;;;6099029;23;20521;-78
2022/07/12 04:03:13;;;;;;;1.50;1.00;;;15.20;98.20;;;;;;6080248;23;20434;-77
2022/07/12 04:05:41;;;;;;;1.50;1.00;;;15.20;98.20;;;;;;6097012;23;20935;-77
2022/07/12 04:08:08;;;;;;;1.50;1.00;;;15.20;98.20;;;;;;6081429;23;20990;-80
2022/07/12 04:10:35;;;;;;;1.50;1.00;;;15.20;98.20;;;;;;6106660;23;20438;-79
2022/07/12 04:13:02;;;;;;;1.50;1.00;;;15.20;98.20;;;;;;6079746;23;20856;-80
2022/07/12 04:15:31;;;;;;;1.50;1.00;;;15.30;98.20;;;;;;6107181;23;20850;-78
2022/07/12 04:17:58;;;;;;;1.50;1.00;;;15.30;98.20;;;;;;6080117;23;20447;-78
2022/07/12 04:20:25;;;;;;;1.50;1.00;;;15.30;98.20;;;;;;6105176;23;20429;-78
2022/07/12 04:22:52;;;;;;;1.50;1.00;;;15.30;98.20;;;;;;6080181;23;20446;-78
2022/07/12 04:25:19;;;;;;;1.50;1.00;;;15.40;98.20;;;;;;6105618;23;20715;-78
2022/07/12 04:27:47;;;;;;;1.50;1.10;;;15.40;98.20;;;;;;6082466;23;20494;-79
2022/07/12 04:30:14;;;;;;;1.50;0.90;;;15.40;98.20;;;;;;6096577;23;20415;-78
2022/07/12 04:32:43;;;;;;;1.50;1.07;;;15.50;98.20;;;;;;6097487;23;20789;-78
2022/07/12 04:35:10;;;;;;;1.50;1.00;;;15.50;98.20;;;;;;6106686;23;20461;-77
2022/07/12 04:37:37;;;;;;;1.50;0.97;;;15.50;98.20;;;;;;6082576;23;20534;-77
2022/07/12 04:40:05;;;;;;;1.50;1.00;;;15.60;98.20;;;;;;6106249;23;20769;-77
2022/07/12 04:42:32;;;;;;;1.50;1.00;;;15.60;98.20;;;;;;6080784;23;21089;-78
2022/07/12 04:45:00;;;;;;;1.50;0.90;;;15.70;98.20;;;;;;6096229;23;20425;-77
2022/07/12 04:47:27;;;;;;;1.50;1.00;;;15.70;98.20;;;;;;6095657;23;20740;-78
2022/07/12 04:49:56;;;;;;;1.70;1.23;;;15.80;98.20;;;;;;6096646;23;20454;-78
2022/07/12 04:52:24;;;;;;;1.50;1.00;;;15.90;98.20;;;;;;6081103;23;20506;-79
2022/07/12 04:54:51;;;;;;;1.50;1.00;;;16.00;98.20;;;;;;6089528;23;20450;-79
2022/07/12 04:57:20;;;;;;;1.50;0.90;;;16.20;98.20;;;;;;6081229;23;20451;-77
2022/07/12 04:59:48;;;;;;;1.50;1.00;;;16.30;98.20;;;;;;6089883;23;21058;-79
2022/07/12 05:02:16;;;;;;;1.50;0.90;;;16.60;98.20;;;;;;6097545;23;20478;-78
2022/07/12 05:04:44;;;;;;;1.50;0.90;;;16.80;98.20;;;;;;6096993;23;20454;-79
2022/07/12 05:07:12;;;;;;;1.50;0.90;;;17.00;98.20;;;;;;6097839;23;20423;-79
2022/07/12 05:09:40;;;;;;;1.57;1.00;;;17.20;98.20;;;;;;6095334;23;20953;-79
2022/07/12 05:12:17;;;;;;;1.50;1.00;;;17.50;98.20;;;;;;6096260;23;20489;-79
2022/07/12 05:14:54;;;;;;;1.50;0.90;;;17.60;98.20;;;;;;6111413;23;20438;-79
2022/07/12 05:17:24;;;;;;;1.50;1.00;;;17.80;98.20;;;;;;6082346;23;20454;-78
2022/07/12 05:19:51;;;;;;;1.50;0.90;;;18.00;98.20;;;;;;6095671;23;20427;-82
2022/07/12 05:22:29;;;;;;;1.50;0.90;;;18.10;98.20;;;;;;6080122;23;21108;-77
2022/07/12 05:24:57;;;;;;;1.50;0.90;;;18.30;98.20;;;;;;6117772;23;20418;-78
2022/07/12 05:27:26;;;;;;;1.50;1.00;;;18.50;98.20;;;;;;6079433;23;20517;-80
2022/07/12 05:29:54;;;;;;;1.50;0.93;;;18.70;98.20;;;;;;6095256;23;20422;-80
2022/07/12 05:32:21;;;;;;;1.50;0.90;;;18.90;98.20;;;;;;6096155;23;20454;-79
2022/07/12 05:34:49;;;;;;;1.50;0.90;;;19.10;98.20;;;;;;6106643;23;20892;-78
2022/07/12 05:37:20;;;;;;;1.50;0.90;;;19.30;98.20;;;;;;6088780;23;20486;-78
2022/07/12 05:39:51;;;;;;;1.50;0.90;;;19.50;98.20;;;;;;6098613;23;20411;-78
2022/07/12 05:42:21;;;;;;;1.50;0.90;;;19.70;98.20;;;;;;6110878;23;20474;-77
2022/07/12 05:45:18;;;;;;;1.50;0.90;;;19.90;98.20;;;;;;6115091;23;20514;-78
2022/07/12 05:47:49;;;;;;;1.60;0.90;;;20.00;98.20;;;;;;6090092;23;20465;-79
2022/07/12 05:50:20;;;;;;;1.60;1.27;;;20.10;98.20;;;;;;6100405;23;20423;-78
2022/07/12 05:55:38;;;;;;;1.50;0.90;;;20.30;98.20;;;;;;6098568;23;20500;-79
2022/07/12 05:58:06;;;;;;;1.50;0.90;;;20.40;98.20;;;;;;6097092;23;20893;-78
2022/07/12 06:00:34;;;;;;;1.50;0.90;;;20.40;98.20;;;;;;6095826;23;20778;-78
2022/07/12 06:03:03;;;;;;;1.50;0.90;;;20.50;98.20;;;;;;6096234;23;20438;-79
2022/07/12 06:05:31;;;;;;;1.50;0.90;;;20.60;98.20;;;;;;6109039;23;20419;-78
2022/07/12 06:08:07;;;;;;;1.50;0.90;;;20.70;98.20;;;;;;6083404;23;20455;-78
2022/07/12 06:10:41;;;;;;;1.50;1.00;;;20.80;98.20;;;;;;6109436;23;20433;-78
2022/07/12 06:13:20;;;;;;;1.50;0.90;;;20.90;98.20;;;;;;6089543;23;20492;-79
2022/07/12 06:15:48;;;;;;;1.50;0.90;;;21.10;98.20;;;;;;6087389;23;20454;-77
2022/07/12 06:18:16;;;;;;;1.53;0.90;;;21.40;98.20;;;;;;6097626;23;20501;-77
2022/07/12 06:20:44;;;;;;;1.50;1.00;;;21.50;98.20;;;;;;6107290;23;20478;-78
2022/07/12 06:23:12;;;;;;;1.50;0.90;;;21.60;98.20;;;;;;6085044;23;20434;-78
2022/07/12 06:25:41;;;;;;;1.50;0.90;;;21.90;98.20;;;;;;6109586;23;20899;-76
2022/07/12 06:28:15;;;;;;;1.50;0.90;;;22.30;98.20;;;;;;6082064;23;20748;-78
2022/07/12 06:30:43;;;;;;;1.53;1.00;;;22.40;97.80;;;;;;6108020;23;20872;-77
2022/07/12 06:33:11;;;;;;;1.53;1.00;;;22.60;98.00;;;;;;6084613;23;20506;-77
2022/07/12 06:35:48;;;;;;;1.50;0.90;;;23.00;96.80;;;;;;6111898;23;20454;-77
2022/07/12 06:38:41;;;;;;;1.53;0.90;;;23.20;96.30;;;;;;6087723;23;20445;-79
2022/07/12 06:41:21;;;;;;;1.50;0.90;;;23.50;95.00;;;;;;6090967;23;20548;-77
2022/07/12 06:43:49;;;;;;;1.50;1.00;;;23.70;94.60;;;;;;6113202;23;20422;-78
2022/07/12 06:46:33;;;;;;;1.50;0.90;;;23.90;94.20;;;;;;6097601;23;20446;-77
2022/07/12 06:49:00;;;;;;;1.50;0.87;;;24.10;93.30;;;;;;6109810;23;20419;-78
2022/07/12 06:51:31;;;;;;;1.50;0.90;;;24.20;93.40;;;;;;6091193;23;20493;-77
2022/07/12 06:53:58;;;;;;;1.50;0.90;;;24.40;92.60;;;;;;6097929;23;20980;-77
2022/07/12 06:56:31;;;;;;;1.50;0.90;;;24.60;92.10;;;;;;6085844;23;20485;-76
2022/07/12 06:58:59;;;;;;;1.50;0.90;;;24.70;92.50;;;;;;6100072;23;20430;-78
2022/07/12 07:01:27;;;;;;;1.50;0.90;;;24.90;91.00;;;;;;6084147;23;20450;-78
2022/07/12 07:03:55;;;;;;;1.50;0.90;;;25.10;90.70;;;;;;6107439;23;20530;-76
2022/07/12 07:06:23;;;;;;;1.50;0.90;;;25.20;90.70;;;;;;6092396;23;20455;-76
2022/07/12 07:08:51;;;;;;;1.60;1.00;;;25.30;90.50;;;;;;6098070;23;20418;-75
2022/07/12 07:11:22;;;;;;;1.50;0.80;;;25.50;90.50;;;;;;6085067;23;20469;-78
2022/07/12 07:13:55;;;;;;;1.50;0.90;;;25.70;89.80;;;;;;6107715;23;20403;-78
2022/07/12 07:16:28;;;;;;;1.50;1.00;;;25.90;87.70;;;;;;6091476;23;20450;-78
2022/07/12 07:18:55;;;;;;;1.50;0.90;;;26.00;87.10;;;;;;6098420;23;20427;-77
2022/07/12 07:21:23;;;;;;;2.00;0.97;;;25.70;86.50;;;;;;6083418;23;20517;-76
2022/07/12 07:23:51;;;;;;;1.50;0.90;;;25.80;86.80;;;;;;6109091;23;20934;-76
2022/07/12 07:26:19;;;;;;;1.50;0.90;;;25.90;87.50;;;;;;6086021;23;20870;-76
2022/07/12 07:31:37;;;;;;;1.50;0.90;;;26.30;86.80;;;;;;6091983;23;20489;-77
2022/07/12 07:34:09;;;;;;;1.50;1.00;;;26.40;86.10;;;;;;6111180;23;20432;-77
2022/07/12 07:36:37;;;;;;;1.57;1.00;;;26.60;86.30;;;;;;6094245;23;20458;-77
2022/07/12 07:39:12;;;;;;;1.50;0.80;;;26.70;85.80;;;;;;6102471;23;20450;-76
2022/07/12 07:41:47;;;;;;;1.50;0.80;;;26.80;84.90;;;;;;6084400;23;20485;-77
2022/07/12 07:44:24;;;;;;;1.50;0.80;;;26.80;84.80;;;;;;6098865;23;20402;-77
2022/07/12 07:46:53;;;;;;;1.50;0.80;;;27.00;84.50;;;;;;6084829;23;20506;-77
2022/07/12 07:49:20;;;;;;;1.50;0.80;;;27.10;84.00;;;;;;6099178;23;20452;-77
2022/07/12 07:52:02;;;;;;;1.60;1.00;;;27.00;84.20;;;;;;6090849;23;20453;-77
2022/07/12 07:54:46;;;;;;;1.50;0.80;;;27.20;84.30;;;;;;6097841;23;20445;-78
2022/07/12 07:57:43;;;;;;;1.43;0.80;;;27.30;84.00;;;;;;6090236;23;20450;-77
2022/07/12 08:00:23;;;;;;;1.50;0.90;;;27.30;83.10;;;;;;6112609;23;20433;-76
2022/07/12 08:02:52;;;;;;;1.50;0.90;;;27.30;82.90;;;;;;6081230;23;20457;-76
2022/07/12 08:05:19;;;;;;;1.50;0.90;;;27.40;84.00;;;;;;6106648;23;20744;-77
2022/07/12 08:07:47;;;;;;;1.50;0.90;;;27.60;83.60;;;;;;6080631;23;20454;-77
2022/07/12 08:10:14;;;;;;;1.50;0.90;;;27.70;81.10;;;;;;6095772;23;20426;-78
2022/07/12 08:12:45;;;;;;;1.50;0.90;;;27.80;82.70;;;;;;6078924;23;21047;-77
2022/07/12 08:15:12;;;;;;;1.50;0.80;;;27.90;81.40;;;;;;6096915;23;20824;-77
2022/07/12 08:17:39;;;;;;;1.50;0.80;;;28.00;81.80;;;;;;6080868;23;20458;-78
2022/07/12 08:20:08;;;;;;;1.50;0.80;;;28.20;82.30;;;;;;6092314;23;20513;-78
2022/07/12 08:22:46;;;;;;;1.90;1.57;;;28.30;82.30;;;;;;6086793;23;20863;-79
2022/07/12 08:25:17;;;;;;;1.50;0.80;;;28.50;80.00;;;;;;6100067;23;20784;-78
2022/07/12 08:27:44;;;;;;;1.47;0.80;;;28.60;79.50;;;;;;6080561;23;20504;-79
2022/07/12 08:30:12;;;;;;;1.50;0.80;;;28.80;79.10;;;;;;6106265;23;20433;-78
2022/07/12 08:32:45;;;;;;;1.60;1.20;;;28.80;78.40;;;;;;6079387;23;20469;-78
2022/07/12 08:35:15;;;;;;;1.50;0.80;;;28.90;77.90;;;;;;6095115;23;20434;-79
2022/07/12 08:37:42;;;;;;;2.03;1.83;;;28.80;78.00;;;;;;6081306;23;20460;-78
2022/07/12 08:40:11;;;;;;;1.43;0.90;;;28.70;77.70;;;;;;6106950;23;20426;-78
2022/07/12 08:42:42;;;;;;;1.50;0.80;;;28.90;76.80;;;;;;6079876;23;20541;-79
2022/07/12 08:45:10;;;;;;;1.50;0.80;;;28.90;79.10;;;;;;6094369;23;20443;-78
2022/07/12 08:47:39;;;;;;;1.47;0.80;;;29.10;79.40;;;;;;6077548;23;20461;-78
2022/07/12 08:50:22;;;;;;;1.50;0.80;;;29.20;77.70;;;;;;6096558;23;20426;-78
2022/07/12 08:52:51;;;;;;;1.50;0.80;;;29.30;77.30;;;;;;6078105;23;20837;-79
2022/07/12 08:55:21;;;;;;;1.47;0.80;;;29.50;77.90;;;;;;6097331;23;20426;-77
2022/07/12 08:57:59;;;;;;;1.43;0.80;;;29.70;76.10;;;;;;6083899;23;20461;-78
2022/07/12 09:00:28;;;;;;;1.50;0.80;;;29.80;76.10;;;;;;6098429;23;20414;-79
2022/07/12 09:02:56;;;;;;;1.50;0.80;;;29.60;74.20;;;;;;6087016;23;20464;-79
2022/07/12 09:05:31;;;;;;;1.43;0.80;;;29.60;74.50;;;;;;6093799;23;20834;-80
2022/07/12 09:08:04;;;;;;;1.43;0.80;;;29.60;75.90;;;;;;6104346;23;20452;-79
2022/07/12 09:10:32;;;;;;;1.47;0.80;;;29.60;76.50;;;;;;6104941;23;20429;-79
2022/07/12 09:13:00;;;;;;;1.43;0.83;;;29.80;74.90;;;;;;6105965;23;20491;-78
2022/07/12 09:15:27;;;;;;;1.50;0.80;;;30.00;76.20;;;;;;6094008;23;20805;-78
2022/07/12 09:18:00;;;;;;;1.43;0.80;;;30.20;73.70;;;;;;6101146;23;20501;-78
2022/07/12 09:20:30;;;;;;;1.47;0.80;;;30.40;73.20;;;;;;6093715;23;20437;-79
2022/07/12 09:23:00;;;;;;;1.43;0.80;;;30.60;72.40;;;;;;6104660;23;20515;-80
2022/07/12 09:25:27;;;;;;;1.47;0.90;;;30.70;71.00;;;;;;6094404;23;20520;-78
2022/07/12 09:27:57;;;;;;;1.50;0.80;;;30.80;73.40;;;;;;6101109;23;20449;-79
2022/07/12 09:30:27;;;;;;;1.47;0.80;;;30.90;70.90;;;;;;6104923;23;20429;-79
2022/07/12 09:38:41;;;;;;;1.47;0.80;;;31.00;72.00;;;;;;6050786;23;20483;-79
2022/07/12 09:41:09;;;;;;;1.47;0.80;;;31.10;70.30;;;;;;6058403;23;21856;-78
2022/07/12 09:43:36;;;;;;;1.50;0.80;;;31.20;72.20;;;;;;6113926;23;20497;-80
2022/07/12 09:46:04;;;;;;;1.50;0.80;;;31.30;71.30;;;;;;6081648;23;20524;-78
2022/07/12 09:48:32;;;;;;;1.83;1.30;;;31.40;70.40;;;;;;6095871;23;20427;-80
2022/07/12 09:51:04;;;;;;;1.43;0.80;;;31.50;70.00;;;;;;6053771;23;20187;-79
2022/07/12 09:53:38;;;;;;;1.47;0.80;;;31.70;69.70;;;;;;6100311;23;20468;-78
2022/07/12 09:56:07;;;;;;;1.50;0.80;;;31.90;70.30;;;;;;6064849;23;20440;-79
2022/07/12 09:58:40;;;;;;;1.47;0.80;;;32.00;70.30;;;;;;6092339;23;20197;-79
2022/07/12 10:01:08;;;;;;;1.47;0.80;;;32.20;69.10;;;;;;6062095;23;21005;-80
2022/07/12 10:03:37;;;;;;;1.43;0.80;;;32.30;68.10;;;;;;6092403;23;20211;-79
2022/07/12 10:06:10;;;;;;;1.47;0.80;;;32.20;65.40;;;;;;6071768;23;20209;-79
2022/07/12 10:08:54;;;;;;;1.60;1.03;;;32.10;67.60;;;;;;6097719;23;20178;-80
2022/07/12 10:11:22;;;;;;;1.60;1.10;;;31.90;67.50;;;;;;6063306;23;20214;-79
2022/07/12 10:13:54;;;;;;;1.50;0.90;;;31.80;67.80;;;;;;6098420;23;20689;-78
2022/07/12 10:16:30;;;;;;;1.40;0.80;;;31.90;67.70;;;;;;6064617;23;20217;-78
2022/07/12 10:19:23;;;;;;;1.43;0.80;;;32.10;66.60;;;;;;6096595;23;20185;-78
2022/07/12 10:21:53;;;;;;;1.40;0.80;;;32.20;66.50;;;;;;6073203;23;20214;-77
2022/07/12 10:24:55;;;;;;;1.40;0.80;;;32.30;66.00;;;;;;6091960;23;20202;-79
2022/07/12 10:27:34;;;;;;;1.50;0.80;;;32.20;65.40;;;;;;6068468;23;20714;-79
2022/07/12 10:30:21;;;;;;;1.47;0.80;;;32.00;64.60;;;;;;6072856;23;20572;-79
2022/07/12 10:32:50;;;;;;;1.43;0.80;;;31.80;64.90;;;;;;6078381;23;20222;-77
2022/07/12 10:35:22;;;;;;;1.47;0.90;;;31.80;66.50;;;;;;6076752;23;20198;-76
2022/07/12 10:38:21;;;;;;;1.43;0.80;;;31.80;65.00;;;;;;6080305;23;20292;-77
2022/07/12 10:40:51;;;;;;;1.43;0.80;;;31.60;65.00;;;;;;6055293;23;20238;-78
2022/07/12 10:46:25;;;;;;;1.47;0.80;;;31.50;65.30;;;;;;6049639;23;20209;-79
2022/07/12 10:49:26;;;;;;;1.43;0.80;;;31.90;65.90;;;;;;6083196;23;20194;-78
2022/07/12 10:52:18;;;;;;;1.47;0.80;;;32.10;64.80;;;;;;6067693;23;20293;-78
2022/07/12 10:55:19;;;;;;;1.47;0.80;;;32.50;64.00;;;;;;6050590;23;20183;-80
2022/07/12 10:57:50;;;;;;;1.63;1.20;;;32.60;62.50;;;;;;6077738;23;20233;-77
2022/07/12 11:00:19;;;;;;;1.47;0.80;;;32.80;62.70;;;;;;6071402;23;20171;-79
2022/07/12 11:02:50;;;;;;;1.43;0.80;;;33.00;62.90;;;;;;6081984;23;20503;-78
2022/07/12 11:05:24;;;;;;;1.47;0.80;;;33.10;62.70;;;;;;6088338;23;20186;-77
2022/07/12 11:07:52;;;;;;;1.40;0.80;;;33.20;61.20;;;;;;6083537;23;20265;-78
2022/07/12 11:10:20;;;;;;;1.47;0.80;;;33.10;60.90;;;;;;6081392;23;20569;-78
2022/07/12 11:12:48;;;;;;;1.40;0.80;;;33.10;62.50;;;;;;6077466;23;20264;-78
2022/07/12 11:15:37;;;;;;;1.50;0.90;;;32.70;59.70;;;;;;6082300;23;20214;-78
2022/07/12 11:18:11;;;;;;;1.43;0.80;;;32.10;61.10;;;;;;6128291;23;20838;-78
2022/07/12 11:20:41;;;;;;;1.43;0.80;;;32.30;61.70;;;;;;6137808;23;20228;-78
2022/07/12 11:23:09;;;;;;;1.47;0.80;;;32.50;62.70;;;;;;6138191;23;20766;-78
2022/07/12 11:25:39;;;;;;;1.43;0.80;;;32.90;61.80;;;;;;6131306;23;20201;-78
2022/07/12 11:28:06;;;;;;;1.43;0.80;;;33.20;61.40;;;;;;6138346;23;20288;-78
2022/07/12 11:30:49;;;;;;;1.40;0.80;;;33.30;61.80;;;;;;6130683;23;20182;-78
2022/07/12 11:33:16;;;;;;;1.47;0.80;;;33.50;60.80;;;;;;6112504;23;20260;-80
2022/07/12 11:35:45;;;;;;;1.40;0.80;;;33.50;60.00;;;;;;6139500;23;20182;-77
2022/07/12 11:38:13;;;;;;;1.43;0.80;;;33.70;61.20;;;;;;6116123;23;20264;-79
2022/07/12 11:40:49;;;;;;;1.45;0.80;;;33.90;60.20;;;;;;6141619;23;20285;-79
2022/07/12 11:43:17;;;;;;;1.60;1.33;;;33.90;58.60;;;;;;6111638;23;20288;-79
2022/07/12 11:45:44;;;;;;;1.48;0.80;;;33.90;60.50;;;;;;6128849;23;20202;-78
2022/07/12 11:48:12;;;;;;;1.45;0.80;;;34.00;60.40;;;;;;6116574;23;20675;-78
2022/07/12 11:50:48;;;;;;;1.40;0.80;;;34.30;60.50;;;;;;6141408;23;20181;-78
2022/07/12 11:53:49;;;;;;;;;;;;;;;;;;;;;
2022/07/12 11:56:17;;;;;;;1.40;0.80;;;34.70;58.40;;;;;;6112816;23;20213;-77
2022/07/12 11:58:56;;;;;;;1.48;0.80;;;34.70;61.00;;;;;;6155456;23;20204;-77
2022/07/12 12:01:25;;;;;;;1.40;0.80;;;34.80;60.00;;;;;;6125607;23;20212;-77
2022/07/12 12:03:53;;;;;;;1.45;0.82;;;34.90;60.10;;;;;;6143435;23;20218;-78
2022/07/12 12:06:22;;;;;;;1.45;0.80;;;34.90;60.10;;;;;;6122145;23;20231;-77
2022/07/12 12:08:52;;;;;;;1.40;0.80;;;34.90;59.30;;;;;;6144047;23;20570;-78
2022/07/12 12:11:29;;;;;;;1.40;0.80;;;35.00;58.80;;;;;;6119447;23;20216;-77
2022/07/12 12:13:58;;;;;;;1.45;0.80;;;35.00;57.80;;;;;;6137383;23;20245;-79
2022/07/12 12:16:26;;;;;;;1.40;0.80;;;35.10;58.30;;;;;;6103877;23;20213;-78
2022/07/12 12:18:54;;;;;;;1.48;0.88;;;35.20;56.30;;;;;;6108017;23;20260;-76
2022/07/12 12:21:27;;;;;;;1.40;0.80;;;35.00;55.10;;;;;;6091944;23;20217;-78
2022/07/12 12:24:10;;;;;;;1.40;0.80;;;34.60;55.80;;;;;;6115059;23;20268;-78
2022/07/12 12:26:39;;;;;;;1.40;0.80;;;34.20;55.80;;;;;;6102947;23;20219;-78
2022/07/12 12:29:06;;;;;;;1.45;0.80;;;33.60;56.90;;;;;;6146013;23;20535;-80
2022/07/12 12:31:34;;;;;;;1.40;0.80;;;33.50;59.10;;;;;;6119594;23;20208;-78
2022/07/12 12:34:10;;;;;;;1.40;0.80;;;33.50;56.60;;;;;;6139059;23;20209;-79
2022/07/12 12:36:38;;;;;;;1.40;0.80;;;33.40;58.70;;;;;;6128112;23;20243;-79
2022/07/12 12:39:10;;;;;;;1.42;0.80;;;33.70;58.40;;;;;;6149898;23;20181;-78
2022/07/12 12:41:47;;;;;;;1.45;0.80;;;33.50;57.40;;;;;;6119585;23;20233;-78
2022/07/12 12:44:17;;;;;;;1.40;0.80;;;33.60;57.80;;;;;;6148324;23;20236;-79
2022/07/12 12:46:46;;;;;;;1.40;0.80;;;33.90;58.00;;;;;;6120458;23;20216;-77
2022/07/12 12:49:13;;;;;;;1.42;0.80;;;33.90;57.80;;;;;;6136051;23;20633;-78
2022/07/12 12:51:53;;;;;;;1.40;0.80;;;34.00;58.30;;;;;;6118579;23;20208;-80
2022/07/12 12:54:33;;;;;;;1.40;0.80;;;34.10;57.40;;;;;;6144596;23;20196;-80
2022/07/12 12:57:09;;;;;;;1.40;0.80;;;34.10;56.60;;;;;;6126294;23;20216;-78
2022/07/12 12:59:38;;;;;;;1.40;0.80;;;34.20;58.70;;;;;;6146317;23;20758;-79
2022/07/12 13:02:08;;;;;;;1.45;0.80;;;34.50;58.60;;;;;;6119660;23;20208;-77
2022/07/12 13:04:38;;;;;;;1.40;0.80;;;34.70;57.10;;;;;;6136013;23;20237;-78
2022/07/12 13:07:07;;;;;;;1.40;0.80;;;34.80;56.20;;;;;;6125765;23;20219;-79
2022/07/12 13:09:35;;;;;;;1.40;0.80;;;35.00;57.20;;;;;;6140403;23;20173;-80
2022/07/12 13:12:06;;;;;;;1.40;0.80;;;35.10;57.60;;;;;;6125324;23;20231;-80
2022/07/12 13:14:33;;;;;;;1.40;0.80;;;35.20;55.70;;;;;;6140004;23;20430;-79
2022/07/12 13:17:01;;;;;;;1.40;0.80;;;35.20;57.30;;;;;;6123544;23;20216;-77
2022/07/12 13:19:30;;;;;;;1.40;0.80;;;35.30;57.20;;;;;;6136888;23;20216;-80